createdAt,value
2022-10-17T00:00:43.053Z,98230.00
2022-10-17T00:04:44.045Z,98237.00
2022-10-17T00:08:45.771Z,98245.00
2022-10-17T00:12:47.244Z,98243.00
2022-10-17T00:16:48.197Z,98239.00
2022-10-17T00:20:49.455Z,98245.00
2022-10-17T00:24:50.516Z,98244.00
2022-10-17T00:28:52.641Z,98248.00
2022-10-17T00:32:53.702Z,98245.00
2022-10-17T00:36:54.736Z,98250.00
2022-10-17T00:40:56.595Z,98247.00
2022-10-17T00:45:03.997Z,98248.00
2022-10-17T00:49:10.466Z,98258.00
2022-10-17T00:53:11.722Z,98262.00
2022-10-17T00:57:13.954Z,98269.00
2022-10-17T01:01:15.216Z,98264.00
2022-10-17T01:05:18.183Z,98265.00
2022-10-17T01:09:19.635Z,98266.00
2022-10-17T01:13:27.337Z,98279.00
2022-10-17T01:17:47.300Z,98270.00
2022-10-17T01:21:58.273Z,98275.00
2022-10-17T01:26:29.041Z,98265.00
2022-10-17T01:30:49.111Z,98261.00
2022-10-17T01:34:56.826Z,98267.00
2022-10-17T01:39:20.096Z,98270.00
2022-10-17T01:43:27.629Z,98264.00
2022-10-17T01:47:31.926Z,98267.00
2022-10-17T01:51:39.406Z,98260.00
2022-10-17T01:55:44.061Z,98269.00
2022-10-17T01:59:48.221Z,98255.00
2022-10-17T02:03:51.151Z,98264.00
2022-10-17T02:07:52.113Z,98257.00
2022-10-17T02:12:06.258Z,98257.00
2022-10-17T02:16:37.019Z,98243.00
2022-10-17T02:21:02.921Z,98249.00
2022-10-17T02:25:22.986Z,98241.00
2022-10-17T02:29:27.754Z,98259.00
2022-10-17T02:33:47.737Z,98239.00
2022-10-17T02:37:50.988Z,98254.00
2022-10-17T02:41:54.425Z,98257.00
2022-10-17T02:45:56.829Z,98259.00
2022-10-17T02:49:58.062Z,98272.00
2022-10-17T02:54:02.934Z,98273.00
2022-10-17T02:58:10.327Z,98273.00
2022-10-17T03:02:11.774Z,98268.00
2022-10-17T03:06:12.811Z,98268.00
2022-10-17T03:10:13.923Z,98259.00
2022-10-17T03:14:14.879Z,98264.00
2022-10-17T03:18:16.050Z,98269.00
2022-10-17T03:22:16.996Z,98264.00
2022-10-17T03:26:17.997Z,98270.00
2022-10-17T03:30:19.689Z,98269.00
2022-10-17T03:34:21.196Z,98283.00
2022-10-17T03:38:22.167Z,98291.00
2022-10-17T03:42:23.174Z,98302.00
2022-10-17T03:46:24.240Z,98315.00
2022-10-17T03:50:25.436Z,98304.00
2022-10-17T03:54:26.289Z,98305.00
2022-10-17T03:58:28.138Z,98311.00
2022-10-17T04:02:28.991Z,98309.00
2022-10-17T04:06:29.842Z,98323.00
2022-10-17T04:10:30.717Z,98317.00
2022-10-17T04:14:31.736Z,98324.00
2022-10-17T04:18:33.291Z,98325.00
2022-10-17T04:22:34.232Z,98335.00
2022-10-17T04:26:35.179Z,98321.00
2022-10-17T04:30:36.451Z,98319.00
2022-10-17T04:34:37.378Z,98316.00
2022-10-17T04:38:38.885Z,98312.00
2022-10-17T04:42:40.017Z,98316.00
2022-10-17T04:46:40.970Z,98324.00
2022-10-17T04:50:43.943Z,98326.00
2022-10-17T04:55:05.459Z,98351.00
2022-10-17T04:59:06.414Z,98342.00
2022-10-17T05:03:07.464Z,98347.00
2022-10-17T05:07:08.555Z,98362.00
2022-10-17T05:11:24.096Z,98354.00
2022-10-17T05:15:25.344Z,98353.00
2022-10-17T05:19:26.415Z,98350.00
2022-10-17T05:23:29.939Z,98344.00
2022-10-17T05:27:31.654Z,98344.00
2022-10-17T05:31:32.655Z,98357.00
2022-10-17T05:35:33.786Z,98361.00
2022-10-17T05:39:35.159Z,98366.00
2022-10-17T05:43:36.243Z,98367.00
2022-10-17T05:47:37.292Z,98364.00
2022-10-17T05:55:39.259Z,98357.00
2022-10-17T05:59:40.194Z,98362.00
2022-10-17T06:03:41.200Z,98353.00
2022-10-17T06:07:42.615Z,98363.00
2022-10-17T06:11:43.950Z,98370.00
2022-10-17T06:15:45.657Z,98376.00
2022-10-17T06:19:47.100Z,98371.00
2022-10-17T06:23:48.101Z,98383.00
2022-10-17T06:27:49.174Z,98380.00
2022-10-17T06:31:51.179Z,98391.00
2022-10-17T06:35:53.475Z,98399.00
2022-10-17T06:39:54.605Z,98394.00
2022-10-17T06:43:56.432Z,98406.00
2022-10-17T06:47:57.503Z,98405.00
2022-10-17T06:51:58.584Z,98420.00
2022-10-17T06:56:03.861Z,98420.00
2022-10-17T07:00:05.926Z,98422.00
2022-10-17T07:04:07.039Z,98437.00
2022-10-17T07:08:09.287Z,98436.00
2022-10-17T07:12:12.170Z,98429.00
2022-10-17T07:16:15.230Z,98444.00
2022-10-17T07:20:16.694Z,98441.00
2022-10-17T07:24:17.669Z,98445.00
2022-10-17T07:28:18.874Z,98453.00
2022-10-17T07:32:19.875Z,98459.00
2022-10-17T07:36:20.985Z,98455.00
2022-10-17T07:40:22.125Z,98459.00
2022-10-17T07:44:23.115Z,98461.00
2022-10-17T07:48:24.843Z,98462.00
2022-10-17T07:52:25.884Z,98478.00
2022-10-17T07:56:28.962Z,98460.00
2022-10-17T08:00:29.915Z,98461.00
2022-10-17T08:04:31.006Z,98469.00
2022-10-17T08:08:32.535Z,98474.00
2022-10-17T08:12:33.995Z,98465.00
2022-10-17T08:16:35.506Z,98461.00
2022-10-17T08:20:36.761Z,98474.00
2022-10-17T08:24:37.871Z,98481.00
2022-10-17T08:28:40.125Z,98474.00
2022-10-17T08:32:43.049Z,98470.00
2022-10-17T08:36:44.218Z,98467.00
2022-10-17T08:40:48.400Z,98461.00
2022-10-17T08:45:14.940Z,98453.00
2022-10-17T08:49:25.538Z,98450.00
2022-10-17T08:53:46.740Z,98452.00
2022-10-17T08:57:48.435Z,98450.00
2022-10-17T09:01:59.502Z,98444.00
2022-10-17T09:06:26.113Z,98433.00
2022-10-17T09:10:43.138Z,98456.00
2022-10-17T09:15:07.815Z,98458.00
2022-10-17T09:19:25.237Z,98463.00
2022-10-17T09:23:32.515Z,98467.00
2022-10-17T09:27:39.910Z,98469.00
2022-10-17T09:31:44.810Z,98463.00
2022-10-17T09:35:47.285Z,98470.00
2022-10-17T09:39:48.464Z,98465.00
2022-10-17T09:43:58.641Z,98470.00
2022-10-17T09:48:21.761Z,98469.00
2022-10-17T09:52:35.514Z,98489.00
2022-10-17T09:57:05.751Z,98488.00
2022-10-17T10:01:24.218Z,98480.00
2022-10-17T10:05:26.028Z,98469.00
2022-10-17T10:09:30.255Z,98484.00
2022-10-17T10:13:33.824Z,98501.00
2022-10-17T10:17:43.730Z,98520.00
2022-10-17T10:21:51.461Z,98518.00
2022-10-17T10:25:58.553Z,98525.00
2022-10-17T10:30:00.189Z,98525.00
2022-10-17T10:34:06.643Z,98528.00
2022-10-17T10:38:10.936Z,98521.00
2022-10-17T10:42:18.815Z,98518.00
2022-10-17T10:46:26.894Z,98520.00
2022-10-17T10:50:46.055Z,98537.00
2022-10-17T10:54:57.050Z,98538.00
2022-10-17T10:59:01.924Z,98552.00
2022-10-17T11:03:18.735Z,98544.00
2022-10-17T11:07:44.697Z,98541.00
2022-10-17T11:11:49.523Z,98517.00
2022-10-17T11:15:59.812Z,98522.00
2022-10-17T11:20:20.008Z,98528.00
2022-10-17T11:24:40.143Z,98519.00
2022-10-17T11:28:41.579Z,98527.00
2022-10-17T11:32:46.444Z,98527.00
2022-10-17T11:36:51.391Z,98528.00
2022-10-17T11:40:56.256Z,98523.00
2022-10-17T11:45:04.538Z,98537.00
2022-10-17T11:49:20.651Z,98537.00
2022-10-17T11:53:31.164Z,98552.00
2022-10-17T11:57:36.765Z,98520.00
2022-10-17T12:01:44.989Z,98552.00
2022-10-17T12:05:49.975Z,98552.00
2022-10-17T12:10:01.430Z,98540.00
2022-10-17T12:14:05.783Z,98538.00
2022-10-17T12:18:10.532Z,98536.00
2022-10-17T12:22:21.217Z,98539.00
2022-10-17T12:26:28.209Z,98539.00
2022-10-17T12:30:29.559Z,98524.00
2022-10-17T12:34:31.125Z,98552.00
2022-10-17T12:38:32.653Z,98560.00
2022-10-17T12:42:43.785Z,98559.00
2022-10-17T12:46:50.841Z,98575.00
2022-10-17T12:55:15.633Z,98576.00
2022-10-17T12:59:23.399Z,98573.00
2022-10-17T13:03:33.122Z,98575.00
2022-10-17T13:07:36.897Z,98580.00
2022-10-17T13:11:39.404Z,98576.00
2022-10-17T13:15:46.824Z,98574.00
2022-10-17T13:19:48.413Z,98571.00
2022-10-17T13:23:51.854Z,98578.00
2022-10-17T13:28:06.654Z,98585.00
2022-10-17T13:32:11.360Z,98570.00
2022-10-17T13:36:16.847Z,98583.00
2022-10-17T13:40:44.059Z,98585.00
2022-10-17T13:44:28.306Z,98592.00
2022-10-17T13:48:32.426Z,98591.00
2022-10-17T13:52:34.402Z,98598.00
2022-10-17T13:56:36.528Z,98600.00
2022-10-17T14:00:37.973Z,98598.00
2022-10-17T14:05:04.124Z,98600.00
2022-10-17T14:09:04.940Z,98599.00
2022-10-17T14:13:07.944Z,98602.00
2022-10-17T14:17:22.053Z,98601.00
2022-10-17T14:21:43.817Z,98605.00
2022-10-17T14:25:37.300Z,98611.00
2022-10-17T14:29:53.231Z,98611.00
2022-10-17T14:33:55.694Z,98617.00
2022-10-17T14:38:01.568Z,98623.00
2022-10-17T14:42:04.749Z,98614.00
2022-10-17T14:46:06.757Z,98663.00
2022-10-17T14:50:12.355Z,98622.00
2022-10-17T14:54:27.887Z,98631.00
2022-10-17T14:58:32.394Z,98626.00
2022-10-17T15:02:35.265Z,98636.00
2022-10-17T15:06:36.711Z,98642.00
2022-10-17T15:10:42.926Z,98636.00
2022-10-17T15:14:49.119Z,98656.00
2022-10-17T15:18:51.619Z,98666.00
2022-10-17T15:22:54.398Z,98664.00
2022-10-17T15:26:56.259Z,98664.00
2022-10-17T15:30:59.957Z,98679.00
2022-10-17T15:35:03.047Z,98665.00
2022-10-17T15:39:06.749Z,98667.00
2022-10-17T15:43:10.047Z,98661.00
2022-10-17T15:47:21.497Z,98663.00
2022-10-17T15:51:24.233Z,98666.00
2022-10-17T15:55:26.444Z,98662.00
2022-10-17T15:59:31.434Z,98669.00
2022-10-17T16:03:33.707Z,98679.00
2022-10-17T16:07:37.886Z,98682.00
2022-10-17T16:11:42.967Z,98678.00
2022-10-17T16:15:46.626Z,98689.00
2022-10-17T16:19:50.423Z,98689.00
2022-10-17T16:23:53.598Z,98690.00
2022-10-17T16:27:58.162Z,98691.00
2022-10-17T16:32:00.422Z,98689.00
2022-10-17T16:36:02.522Z,98697.00
2022-10-17T16:40:06.253Z,98699.00
2022-10-17T16:44:12.501Z,98706.00
2022-10-17T16:48:13.713Z,98711.00
2022-10-17T16:52:14.790Z,98714.00
2022-10-17T16:56:18.263Z,98723.00
2022-10-17T17:00:19.816Z,98722.00
2022-10-17T17:04:21.031Z,98729.00
2022-10-17T17:08:22.138Z,98730.00
2022-10-17T17:12:23.445Z,98739.00
2022-10-17T17:16:26.004Z,98745.00
2022-10-17T17:20:26.985Z,98743.00
2022-10-17T17:24:28.737Z,98740.00
2022-10-17T17:28:30.820Z,98738.00
2022-10-17T17:32:32.172Z,98742.00
2022-10-17T17:36:36.396Z,98739.00
2022-10-17T17:40:50.663Z,98750.00
2022-10-17T17:44:52.249Z,98743.00
2022-10-17T17:48:55.357Z,98600.00
2022-10-17T17:52:56.877Z,98751.00
2022-10-17T17:56:58.031Z,98750.00
2022-10-17T18:00:59.658Z,98764.00
2022-10-17T18:05:00.887Z,98764.00
2022-10-17T18:09:02.149Z,98766.00
2022-10-17T18:13:03.077Z,98760.00
2022-10-17T18:17:04.350Z,98769.00
2022-10-17T18:21:06.370Z,98781.00
2022-10-17T18:25:08.557Z,98783.00
2022-10-17T18:29:12.020Z,98782.00
2022-10-17T18:33:13.570Z,98782.00
2022-10-17T18:37:15.518Z,98787.00
2022-10-17T18:41:19.169Z,98786.00
2022-10-17T18:45:22.880Z,98781.00
2022-10-17T18:49:25.350Z,98784.00
2022-10-17T18:53:27.400Z,98791.00
2022-10-17T18:57:29.368Z,98785.00
2022-10-17T19:01:31.066Z,98793.00
2022-10-17T19:05:34.196Z,98794.00
2022-10-17T19:09:36.608Z,98795.00
2022-10-17T19:13:38.692Z,98792.00
2022-10-17T19:17:40.508Z,98788.00
2022-10-17T19:21:42.861Z,98784.00
2022-10-17T19:25:44.970Z,98786.00
2022-10-17T19:29:47.602Z,98779.00
2022-10-17T19:33:52.014Z,98778.00
2022-10-17T19:37:55.567Z,98780.00
2022-10-17T19:41:57.314Z,98782.00
2022-10-17T19:46:01.370Z,98777.00
2022-10-17T19:54:05.242Z,98765.00
2022-10-17T19:58:08.944Z,98763.00
2022-10-17T20:02:13.007Z,98765.00
2022-10-17T20:06:15.177Z,98765.00
2022-10-17T20:10:17.929Z,98765.00
2022-10-17T20:14:19.182Z,98771.00
2022-10-17T20:18:20.218Z,98773.00
2022-10-17T20:22:21.251Z,98773.00
2022-10-17T20:26:33.615Z,98794.00
2022-10-17T20:30:27.543Z,98794.00
2022-10-17T20:34:30.616Z,98788.00
2022-10-17T20:38:31.687Z,98799.00
2022-10-17T20:42:33.071Z,98788.00
2022-10-17T20:46:37.805Z,98797.00
2022-10-17T20:50:38.670Z,98801.00
2022-10-17T20:54:40.922Z,98788.00
2022-10-17T20:58:41.991Z,98793.00
2022-10-17T21:02:43.253Z,98800.00
2022-10-17T21:06:46.168Z,98795.00
2022-10-17T21:10:47.631Z,98794.00
2022-10-17T21:14:49.612Z,98801.00
2022-10-17T21:18:50.756Z,98802.00
2022-10-17T21:22:51.914Z,98800.00
2022-10-17T21:26:54.907Z,98802.00
2022-10-17T21:31:09.483Z,98786.00
2022-10-17T21:35:10.441Z,98785.00
2022-10-17T21:39:13.354Z,98776.00
2022-10-17T21:43:14.323Z,98778.00
2022-10-17T21:47:15.345Z,98780.00
2022-10-17T21:51:18.319Z,98776.00
2022-10-17T21:55:19.276Z,98781.00
2022-10-17T21:59:20.294Z,98782.00
2022-10-17T22:03:21.211Z,98782.00
2022-10-17T22:07:22.176Z,98775.00
2022-10-17T22:11:26.759Z,98793.00
2022-10-17T22:15:29.328Z,98788.00
2022-10-17T22:19:30.452Z,98785.00
2022-10-17T22:23:31.758Z,98784.00
2022-10-17T22:27:33.102Z,98787.00
2022-10-17T22:31:35.885Z,98779.00
2022-10-17T22:35:36.841Z,98779.00
2022-10-17T22:39:38.204Z,98774.00
2022-10-17T22:43:39.325Z,98774.00
2022-10-17T22:47:40.532Z,98776.00
2022-10-17T22:51:41.589Z,98780.00
2022-10-17T22:55:42.709Z,98764.00
2022-10-17T22:59:43.628Z,98760.00
2022-10-17T23:03:45.221Z,98769.00
2022-10-17T23:07:46.274Z,98775.00
2022-10-17T23:11:47.135Z,98761.00
2022-10-17T23:15:53.988Z,98763.00
2022-10-17T23:19:57.637Z,98756.00
2022-10-17T23:23:57.663Z,98756.00
2022-10-17T23:27:58.583Z,98750.00
2022-10-17T23:32:00.393Z,98750.00
2022-10-17T23:36:05.399Z,98754.00
2022-10-17T23:40:07.511Z,98753.00
2022-10-17T23:44:09.976Z,98760.00
2022-10-17T23:48:10.827Z,98766.00
2022-10-17T23:52:11.857Z,98763.00
2022-10-17T23:56:12.902Z,98758.00
